Time;durP1;ratioP1;P1;durP2;ratioP2;P2;SDS_P1;SDS_P2;PMS_P1;PMS_P2;Temp;Humidity;BMP_temperature;BMP_pressure;BME280_temperature;BME280_humidity;BME280_pressure;Samples;Min_cycle;Max_cycle;Signal;HPM_P1;HPM_P2
2023/07/27 00:01:13;;;;;;;3.10;2.80;;;;;;;;;;5011910;28;20774;-58
2023/07/27 00:03:39;;;;;;;11.43;3.10;;;;;;;;;;5012742;28;20174;-58
2023/07/27 00:06:04;;;;;;;2.73;2.63;;;;;;;;;;5012719;28;20748;-58
2023/07/27 00:08:30;;;;;;;3.00;2.90;;;;;;;;;;5012752;28;20521;-58
2023/07/27 00:10:56;;;;;;;3.50;3.30;;;;;;;;;;5012500;28;20440;-58
2023/07/27 00:13:22;;;;;;;3.13;2.90;;;;;;;;;;5012686;28;20891;-58
2023/07/27 00:15:48;;;;;;;2.87;2.67;;;;;;;;;;5012520;28;20711;-58
2023/07/27 00:18:14;;;;;;;4.43;3.70;;;;;;;;;;5012531;28;20455;-58
2023/07/27 00:20:40;;;;;;;3.37;3.17;;;;;;;;;;5012404;28;20408;-58
2023/07/27 00:23:06;;;;;;;5.57;3.67;;;;;;;;;;5012403;28;20424;-58
2023/07/27 00:25:32;;;;;;;8.73;3.37;;;;;;;;;;5012624;28;20503;-58
2023/07/27 00:27:58;;;;;;;3.63;3.43;;;;;;;;;;5012359;28;20812;-58
2023/07/27 00:30:24;;;;;;;3.37;3.20;;;;;;;;;;5011022;28;20437;-58
2023/07/27 00:32:50;;;;;;;3.70;3.40;;;;;;;;;;5012293;28;20957;-58
2023/07/27 00:35:16;;;;;;;3.27;3.17;;;;;;;;;;5012462;28;20415;-58
2023/07/27 00:37:42;;;;;;;3.77;3.20;;;;;;;;;;5012375;28;20438;-58
2023/07/27 00:40:10;;;;;;;3.90;3.60;;;;;;;;;;5012366;28;20400;-58
2023/07/27 00:42:39;;;;;;;4.87;3.37;;;;;;;;;;5012201;28;20910;-58
2023/07/27 00:45:07;;;;;;;7.50;3.40;;;;;;;;;;5012265;28;20450;-58
2023/07/27 00:47:36;;;;;;;3.00;2.90;;;;;;;;;;5012184;28;20927;-58
2023/07/27 00:50:02;;;;;;;4.10;3.37;;;;;;;;;;5012191;28;20449;-58
2023/07/27 00:52:28;;;;;;;3.90;3.53;;;;;;;;;;5012081;28;20560;-58
2023/07/27 00:54:58;;;;;;;3.43;3.33;;;;;;;;;;5012211;28;20529;-58
2023/07/27 00:57:25;;;;;;;3.20;3.00;;;;;;;;;;5012213;28;20431;-57
2023/07/27 00:59:51;;;;;;;3.23;3.13;;;;;;;;;;5012437;28;20446;-57
2023/07/27 01:02:17;;;;;;;3.83;3.10;;;;;;;;;;5012353;28;20452;-58
2023/07/27 01:04:43;;;;;;;4.83;3.00;;;;;;;;;;5012123;28;20517;-58
2023/07/27 01:07:09;;;;;;;3.50;3.10;;;;;;;;;;5011989;28;20505;-57
2023/07/27 01:09:38;;;;;;;3.30;3.10;;;;;;;;;;5013092;28;20460;-58
2023/07/27 01:12:17;;;;;;;4.30;2.80;;;;;;;;;;5014841;28;20483;-56
2023/07/27 01:14:42;;;;;;;3.23;3.00;;;;;;;;;;5016736;28;20414;-57
2023/07/27 01:17:17;;;;;;;2.80;2.63;;;;;;;;;;5015690;28;21010;-56
2023/07/27 01:20:02;;;;;;;7.40;3.53;;;;;;;;;;5015901;28;20412;-56
2023/07/27 01:22:31;;;;;;;8.87;2.83;;;;;;;;;;5015198;28;20792;-56
2023/07/27 01:25:00;;;;;;;2.80;2.70;;;;;;;;;;5015333;28;20414;-56
2023/07/27 01:27:29;;;;;;;7.80;3.20;;;;;;;;;;5015129;28;20410;-56
2023/07/27 01:29:58;;;;;;;5.30;2.60;;;;;;;;;;5015295;28;20426;-55
2023/07/27 01:32:27;;;;;;;3.40;3.20;;;;;;;;;;5015042;28;20476;-56
2023/07/27 01:34:57;;;;;;;3.57;3.37;;;;;;;;;;5015184;28;20438;-55
2023/07/27 01:37:26;;;;;;;5.53;3.10;;;;;;;;;;5015317;28;20441;-55
2023/07/27 01:39:52;;;;;;;2.93;2.83;;;;;;;;;;5014678;28;20414;-55
2023/07/27 01:42:19;;;;;;;8.73;2.97;;;;;;;;;;5015078;28;20427;-56
2023/07/27 01:44:45;;;;;;;3.13;2.70;;;;;;;;;;5014782;28;20513;-56
2023/07/27 01:47:11;;;;;;;5.83;3.43;;;;;;;;;;5014383;28;20422;-56
2023/07/27 01:49:38;;;;;;;2.80;2.70;;;;;;;;;;5013907;28;20430;-56
2023/07/27 01:52:05;;;;;;;3.53;3.23;;;;;;;;;;5014884;28;20882;-56
2023/07/27 01:54:31;;;;;;;3.63;3.40;;;;;;;;;;5013743;28;20491;-56
2023/07/27 01:56:58;;;;;;;4.10;2.73;;;;;;;;;;5014802;28;20920;-56
2023/07/27 01:59:25;;;;;;;11.57;2.70;;;;;;;;;;5015040;28;20426;-58
2023/07/27 02:01:53;;;;;;;15.07;3.90;;;;;;;;;;5014383;28;20446;-56
2023/07/27 02:04:19;;;;;;;3.60;3.30;;;;;;;;;;5015085;28;20773;-56
2023/07/27 02:06:46;;;;;;;5.20;2.90;;;;;;;;;;5013259;28;20431;-56
2023/07/27 02:09:12;;;;;;;3.63;3.33;;;;;;;;;;5014928;28;20435;-56
2023/07/27 02:11:41;;;;;;;4.00;2.90;;;;;;;;;;5014381;28;20590;-56
2023/07/27 02:14:15;;;;;;;3.30;3.10;;;;;;;;;;5014491;28;20434;-56
2023/07/27 02:16:44;;;;;;;3.63;3.33;;;;;;;;;;5014237;28;20442;-56
2023/07/27 02:19:11;;;;;;;4.30;3.10;;;;;;;;;;5013037;28;20507;-56
2023/07/27 02:21:37;;;;;;;10.20;3.43;;;;;;;;;;5012106;28;20429;-56
2023/07/27 02:24:06;;;;;;;3.50;3.20;;;;;;;;;;5014278;28;20924;-56
2023/07/27 02:26:32;;;;;;;3.40;3.20;;;;;;;;;;5013667;28;20428;-56
2023/07/27 02:28:59;;;;;;;3.20;3.00;;;;;;;;;;5014441;28;20502;-56
2023/07/27 02:31:25;;;;;;;9.10;3.00;;;;;;;;;;5014062;28;21030;-56
2023/07/27 02:33:51;;;;;;;3.03;2.93;;;;;;;;;;5013922;28;20410;-56
2023/07/27 02:36:17;;;;;;;9.93;3.50;;;;;;;;;;5012668;28;20441;-56
2023/07/27 02:38:43;;;;;;;3.23;3.03;;;;;;;;;;5013529;28;20477;-56
2023/07/27 02:41:12;;;;;;;2.97;2.87;;;;;;;;;;5014169;28;20450;-56
2023/07/27 02:43:38;;;;;;;2.97;2.87;;;;;;;;;;5014025;28;20413;-56
2023/07/27 02:46:08;;;;;;;2.97;2.77;;;;;;;;;;5013537;28;20434;-56
2023/07/27 02:48:34;;;;;;;3.90;3.00;;;;;;;;;;5012612;28;20453;-56
2023/07/27 02:51:00;;;;;;;5.03;2.73;;;;;;;;;;5013681;28;20414;-56
2023/07/27 02:53:26;;;;;;;3.07;2.63;;;;;;;;;;5013922;28;20425;-56
2023/07/27 02:55:59;;;;;;;5.83;3.17;;;;;;;;;;5013295;28;20898;-56
2023/07/27 02:58:26;;;;;;;2.77;2.67;;;;;;;;;;5012546;28;20454;-56
2023/07/27 03:00:53;;;;;;;5.30;3.40;;;;;;;;;;5012410;28;20419;-58
2023/07/27 03:03:19;;;;;;;6.47;2.90;;;;;;;;;;5013576;28;20441;-56
2023/07/27 03:05:45;;;;;;;6.93;2.67;;;;;;;;;;5012044;28;20430;-56
2023/07/27 03:08:11;;;;;;;3.67;3.37;;;;;;;;;;5013253;28;20526;-57
2023/07/27 03:10:38;;;;;;;3.40;2.53;;;;;;;;;;5013094;28;20427;-56
2023/07/27 03:13:04;;;;;;;7.13;3.60;;;;;;;;;;5013088;28;20469;-56
2023/07/27 03:15:32;;;;;;;2.80;2.70;;;;;;;;;;5012991;28;20829;-56
2023/07/27 03:18:01;;;;;;;6.13;3.20;;;;;;;;;;5013290;28;20433;-56
2023/07/27 03:20:26;;;;;;;2.93;2.83;;;;;;;;;;5012249;28;20441;-56
2023/07/27 03:22:52;;;;;;;7.70;2.90;;;;;;;;;;5013171;28;20541;-56
2023/07/27 03:25:18;;;;;;;2.60;2.50;;;;;;;;;;5013423;28;20433;-56
2023/07/27 03:27:44;;;;;;;4.93;2.83;;;;;;;;;;5011701;28;20917;-56
2023/07/27 03:30:11;;;;;;;3.00;2.90;;;;;;;;;;5013250;28;20414;-56
2023/07/27 03:32:38;;;;;;;6.50;3.00;;;;;;;;;;5012959;28;20963;-56
2023/07/27 03:35:04;;;;;;;6.53;3.00;;;;;;;;;;5013203;28;20421;-56
2023/07/27 03:37:30;;;;;;;3.37;3.17;;;;;;;;;;5012036;28;20793;-56
2023/07/27 03:39:56;;;;;;;3.23;3.00;;;;;;;;;;5012780;28;20412;-56
2023/07/27 03:42:22;;;;;;;3.10;2.90;;;;;;;;;;5010300;28;20520;-56
2023/07/27 03:44:48;;;;;;;4.43;2.67;;;;;;;;;;5012360;28;20419;-56
2023/07/27 03:47:14;;;;;;;5.53;3.00;;;;;;;;;;5012077;28;20418;-56
2023/07/27 03:49:43;;;;;;;8.13;3.23;;;;;;;;;;5012842;28;20779;-56
2023/07/27 03:52:08;;;;;;;8.30;3.10;;;;;;;;;;5012893;28;20953;-56
2023/07/27 03:54:37;;;;;;;10.03;3.37;;;;;;;;;;5012338;28;20444;-56
2023/07/27 03:57:03;;;;;;;3.00;2.90;;;;;;;;;;5012560;28;20407;-56
2023/07/27 03:59:29;;;;;;;4.67;4.20;;;;;;;;;;5012500;28;21032;-57
2023/07/27 04:01:55;;;;;;;4.90;3.53;;;;;;;;;;5011939;28;20521;-57
2023/07/27 04:04:21;;;;;;;3.40;3.27;;;;;;;;;;5012195;28;20902;-58
2023/07/27 04:06:47;;;;;;;12.33;3.20;;;;;;;;;;5012756;28;20421;-57
2023/07/27 04:09:13;;;;;;;3.40;3.20;;;;;;;;;;5012235;28;20919;-56
2023/07/27 04:11:39;;;;;;;5.60;3.23;;;;;;;;;;5012356;28;20548;-56
2023/07/27 04:14:05;;;;;;;5.83;5.47;;;;;;;;;;5012373;28;20925;-57
2023/07/27 04:16:31;;;;;;;3.70;3.50;;;;;;;;;;5011147;28;20476;-57
2023/07/27 04:18:57;;;;;;;5.80;5.50;;;;;;;;;;5012390;28;20437;-56
2023/07/27 04:21:23;;;;;;;4.47;4.23;;;;;;;;;;5012432;28;20442;-56
2023/07/27 04:23:49;;;;;;;7.70;3.20;;;;;;;;;;5012145;28;20565;-56
2023/07/27 04:26:15;;;;;;;6.73;2.80;;;;;;;;;;5012173;28;20943;-56
2023/07/27 04:28:43;;;;;;;4.07;3.60;;;;;;;;;;5011697;28;20437;-56
2023/07/27 04:31:09;;;;;;;8.13;3.97;;;;;;;;;;5011999;28;20423;-57
2023/07/27 04:33:35;;;;;;;11.90;9.27;;;;;;;;;;5011175;28;20500;-56
2023/07/27 04:36:06;;;;;;;10.33;7.00;;;;;;;;;;5012195;28;20457;-57
2023/07/27 04:38:32;;;;;;;12.37;6.87;;;;;;;;;;5012028;28;20447;-56
2023/07/27 04:40:58;;;;;;;12.67;7.07;;;;;;;;;;5012337;28;20480;-56
2023/07/27 04:43:24;;;;;;;8.13;3.60;;;;;;;;;;5011843;28;20862;-56
2023/07/27 04:45:50;;;;;;;4.70;3.60;;;;;;;;;;5015232;28;20406;-57
2023/07/27 04:48:16;;;;;;;3.80;3.53;;;;;;;;;;5014789;28;20493;-57
2023/07/27 04:50:45;;;;;;;41.50;8.77;;;;;;;;;;5015908;28;20419;-56
2023/07/27 04:53:11;;;;;;;7.17;3.70;;;;;;;;;;5015893;28;20530;-57
2023/07/27 04:55:36;;;;;;;3.20;3.00;;;;;;;;;;5014873;28;20419;-57
2023/07/27 04:58:02;;;;;;;3.93;3.07;;;;;;;;;;5016055;28;20457;-57
2023/07/27 05:00:28;;;;;;;5.50;2.90;;;;;;;;;;5014747;28;20782;-57
2023/07/27 05:02:54;;;;;;;3.20;3.00;;;;;;;;;;5014153;28;20433;-56
2023/07/27 05:05:23;;;;;;;8.53;3.30;;;;;;;;;;5015572;28;20501;-57
2023/07/27 05:07:51;;;;;;;4.50;3.10;;;;;;;;;;5015660;28;20416;-56
2023/07/27 05:10:17;;;;;;;3.17;3.07;;;;;;;;;;5015631;28;20450;-57
2023/07/27 05:12:47;;;;;;;5.13;3.00;;;;;;;;;;5015363;28;20563;-57
2023/07/27 05:15:13;;;;;;;3.70;3.50;;;;;;;;;;5015395;28;20814;-56
2023/07/27 05:17:39;;;;;;;6.17;3.43;;;;;;;;;;5015422;28;20451;-57
2023/07/27 05:20:05;;;;;;;3.00;2.90;;;;;;;;;;5014060;28;20510;-56
2023/07/27 05:22:31;;;;;;;3.03;2.83;;;;;;;;;;5015757;28;20415;-57
2023/07/27 05:25:00;;;;;;;3.40;3.30;;;;;;;;;;5014409;28;20420;-56
2023/07/27 05:27:28;;;;;;;6.20;2.93;;;;;;;;;;5015083;28;20439;-56
2023/07/27 05:29:56;;;;;;;3.77;3.47;;;;;;;;;;5015229;28;20423;-56
2023/07/27 05:32:22;;;;;;;3.43;3.13;;;;;;;;;;5015394;28;20471;-56
2023/07/27 05:34:48;;;;;;;3.60;3.30;;;;;;;;;;5015693;28;20837;-56
2023/07/27 05:37:14;;;;;;;3.77;3.47;;;;;;;;;;5015484;28;20918;-56
2023/07/27 05:39:43;;;;;;;3.30;3.10;;;;;;;;;;5013319;28;20428;-56
2023/07/27 05:42:09;;;;;;;9.90;4.13;;;;;;;;;;5014910;28;20514;-56
2023/07/27 05:44:35;;;;;;;3.33;3.13;;;;;;;;;;5014678;28;20511;-56
2023/07/27 05:47:03;;;;;;;3.13;3.03;;;;;;;;;;5013491;28;20904;-56
2023/07/27 05:49:29;;;;;;;3.50;3.30;;;;;;;;;;5013594;28;20977;-56
2023/07/27 05:51:58;;;;;;;3.40;3.23;;;;;;;;;;5014843;28;20558;-56
2023/07/27 05:54:24;;;;;;;3.30;3.13;;;;;;;;;;5014470;28;20412;-56
2023/07/27 05:56:50;;;;;;;3.87;3.60;;;;;;;;;;5013746;28;20420;-56
2023/07/27 05:59:15;;;;;;;3.80;3.50;;;;;;;;;;5015341;28;20461;-56
2023/07/27 06:01:41;;;;;;;4.40;3.20;;;;;;;;;;5014656;28;20493;-56
2023/07/27 06:04:07;;;;;;;3.37;3.03;;;;;;;;;;5014542;28;20412;-56
2023/07/27 06:06:33;;;;;;;3.53;3.10;;;;;;;;;;5014651;28;21074;-55
2023/07/27 06:09:00;;;;;;;3.23;3.13;;;;;;;;;;5014673;28;20431;-56
2023/07/27 06:11:26;;;;;;;3.40;3.30;;;;;;;;;;5014272;28;20553;-56
2023/07/27 06:13:54;;;;;;;14.60;4.10;;;;;;;;;;5014442;28;20448;-56
2023/07/27 06:16:20;;;;;;;4.03;3.63;;;;;;;;;;5014104;28;20428;-55
2023/07/27 06:18:48;;;;;;;3.40;3.20;;;;;;;;;;5013023;28;20621;-56
2023/07/27 06:21:14;;;;;;;3.60;3.30;;;;;;;;;;5013820;28;20424;-56
2023/07/27 06:23:40;;;;;;;4.30;3.80;;;;;;;;;;5012890;28;20453;-56
2023/07/27 06:26:07;;;;;;;6.53;3.77;;;;;;;;;;5011573;28;20522;-56
2023/07/27 06:28:33;;;;;;;3.77;3.47;;;;;;;;;;5013067;28;20671;-56
2023/07/27 06:31:01;;;;;;;4.40;4.10;;;;;;;;;;5014069;28;20783;-56
2023/07/27 06:33:27;;;;;;;5.40;4.00;;;;;;;;;;5014087;28;20972;-56
2023/07/27 06:35:53;;;;;;;3.80;3.60;;;;;;;;;;5013256;28;20421;-56
2023/07/27 06:38:19;;;;;;;5.47;4.03;;;;;;;;;;5013830;28;20783;-56
2023/07/27 06:40:45;;;;;;;7.00;4.27;;;;;;;;;;5013721;28;20432;-56
2023/07/27 06:43:12;;;;;;;5.37;3.37;;;;;;;;;;5012529;28;20443;-56
2023/07/27 06:45:40;;;;;;;4.23;4.00;;;;;;;;;;5013689;28;20413;-57
2023/07/27 06:48:06;;;;;;;4.77;3.80;;;;;;;;;;5014029;28;20425;-57
2023/07/27 06:50:32;;;;;;;3.30;3.20;;;;;;;;;;5014001;28;20522;-57
2023/07/27 06:52:58;;;;;;;5.90;4.03;;;;;;;;;;5011626;28;20507;-57
2023/07/27 06:55:24;;;;;;;3.87;3.77;;;;;;;;;;5012096;28;20801;-56
2023/07/27 06:57:50;;;;;;;5.90;3.57;;;;;;;;;;5013865;28;20891;-56
2023/07/27 07:00:19;;;;;;;3.97;3.57;;;;;;;;;;5012278;28;20461;-56
2023/07/27 07:02:45;;;;;;;4.47;4.10;;;;;;;;;;5012442;28;20444;-56
2023/07/27 07:05:13;;;;;;;3.80;3.30;;;;;;;;;;5012536;28;20439;-56
2023/07/27 07:07:39;;;;;;;6.63;3.90;;;;;;;;;;5011776;28;20440;-57
2023/07/27 07:10:06;;;;;;;4.43;4.13;;;;;;;;;;5012891;28;20415;-57
2023/07/27 07:12:32;;;;;;;5.90;4.10;;;;;;;;;;5013691;28;20574;-57
2023/07/27 07:14:58;;;;;;;3.90;3.70;;;;;;;;;;5013733;28;20948;-56
2023/07/27 07:17:24;;;;;;;3.60;3.40;;;;;;;;;;5012552;28;20455;-56
2023/07/27 07:19:50;;;;;;;3.60;3.30;;;;;;;;;;5013238;28;20427;-56
2023/07/27 07:22:16;;;;;;;6.90;3.70;;;;;;;;;;5012508;28;20812;-56
2023/07/27 07:24:45;;;;;;;3.13;2.93;;;;;;;;;;5013202;28;20514;-56
2023/07/27 07:27:11;;;;;;;4.20;3.27;;;;;;;;;;5013272;28;20445;-56
2023/07/27 07:29:36;;;;;;;4.90;3.43;;;;;;;;;;5013395;28;20950;-56
2023/07/27 07:32:03;;;;;;;3.17;2.97;;;;;;;;;;5012189;28;20500;-56
2023/07/27 07:34:29;;;;;;;3.00;2.80;;;;;;;;;;5010440;28;20426;-58
2023/07/27 07:36:55;;;;;;;3.00;2.60;;;;;;;;;;5012670;28;20947;-57
2023/07/27 07:39:21;;;;;;;4.67;2.50;;;;;;;;;;5011615;28;20493;-56
2023/07/27 07:41:47;;;;;;;2.50;2.30;;;;;;;;;;5012587;28;20496;-56
2023/07/27 07:44:13;;;;;;;1.80;1.70;;;;;;;;;;5011947;28;20466;-56
2023/07/27 07:46:40;;;;;;;1.90;1.80;;;;;;;;;;5012469;28;20435;-56
2023/07/27 07:49:06;;;;;;;3.10;2.13;;;;;;;;;;5011770;28;20498;-56
2023/07/27 07:51:32;;;;;;;4.90;1.83;;;;;;;;;;5013404;28;20955;-56
2023/07/27 07:53:58;;;;;;;1.40;1.40;;;;;;;;;;5013339;28;20427;-56
2023/07/27 07:56:24;;;;;;;1.70;1.70;;;;;;;;;;5013096;28;20494;-56
2023/07/27 07:58:50;;;;;;;1.47;1.47;;;;;;;;;;5013386;28;20798;-56
2023/07/27 08:01:18;;;;;;;1.70;1.60;;;;;;;;;;5012011;28;20420;-56
2023/07/27 08:03:44;;;;;;;1.80;1.70;;;;;;;;;;5013217;28;20421;-56
2023/07/27 08:06:13;;;;;;;1.83;1.30;;;;;;;;;;5013110;28;20959;-56
2023/07/27 08:08:39;;;;;;;2.60;1.50;;;;;;;;;;5013343;28;20421;-56
2023/07/27 08:11:05;;;;;;;2.30;1.30;;;;;;;;;;5012277;28;20975;-55
2023/07/27 08:13:31;;;;;;;1.07;1.07;;;;;;;;;;5012919;28;20563;-56
2023/07/27 08:15:57;;;;;;;4.50;1.90;;;;;;;;;;5012438;28;20424;-56
2023/07/27 08:18:23;;;;;;;2.50;1.70;;;;;;;;;;5012688;28;20528;-56
2023/07/27 08:21:05;;;;;;;1.27;1.27;;;;;;;;;;5011709;28;20411;-56
2023/07/27 08:23:34;;;;;;;1.80;1.70;;;;;;;;;;5012406;28;20484;-55
2023/07/27 08:26:01;;;;;;;1.67;1.60;;;;;;;;;;5011157;28;20423;-56
2023/07/27 08:28:27;;;;;;;1.63;1.53;;;;;;;;;;5012022;28;20537;-56
2023/07/27 08:30:56;;;;;;;1.50;1.50;;;;;;;;;;5012648;28;20414;-56
2023/07/27 08:33:22;;;;;;;1.70;1.60;;;;;;;;;;5012221;28;20972;-56
2023/07/27 08:35:49;;;;;;;1.50;1.50;;;;;;;;;;5012824;28;20420;-56
2023/07/27 08:38:14;;;;;;;2.77;1.70;;;;;;;;;;5012633;28;20797;-56
2023/07/27 08:40:41;;;;;;;2.93;1.37;;;;;;;;;;5012489;28;20408;-55
2023/07/27 08:43:08;;;;;;;2.30;1.60;;;;;;;;;;5012315;28;20416;-56
2023/07/27 08:45:35;;;;;;;1.53;1.47;;;;;;;;;;5010893;28;20461;-55
2023/07/27 08:48:03;;;;;;;1.50;1.50;;;;;;;;;;5012440;28;20492;-55
2023/07/27 08:50:31;;;;;;;2.50;1.43;;;;;;;;;;5012793;28;20407;-55
2023/07/27 08:52:57;;;;;;;3.43;1.97;;;;;;;;;;5012520;28;20523;-56
2023/07/27 08:55:23;;;;;;;2.00;1.90;;;;;;;;;;5012480;28;20414;-56
2023/07/27 08:57:51;;;;;;;1.70;1.70;;;;;;;;;;5012822;28;20785;-56
2023/07/27 09:00:17;;;;;;;2.13;2.00;;;;;;;;;;5011179;28;20447;-56
2023/07/27 09:02:43;;;;;;;1.63;1.53;;;;;;;;;;5012577;28;20450;-55
2023/07/27 09:05:09;;;;;;;1.53;1.30;;;;;;;;;;5012293;28;20416;-55
2023/07/27 09:07:35;;;;;;;2.23;1.57;;;;;;;;;;5012042;28;20421;-55
2023/07/27 09:10:06;;;;;;;1.77;1.67;;;;;;;;;;5011944;28;20444;-56
2023/07/27 09:12:33;;;;;;;1.70;1.70;;;;;;;;;;5011977;28;20466;-56
2023/07/27 09:14:59;;;;;;;1.97;1.87;;;;;;;;;;5012119;28;20422;-56
2023/07/27 09:17:25;;;;;;;1.80;1.80;;;;;;;;;;5012074;28;20535;-55
2023/07/27 09:19:52;;;;;;;2.23;2.17;;;;;;;;;;5012063;28;20431;-56
2023/07/27 09:22:18;;;;;;;2.30;1.87;;;;;;;;;;5012643;28;20423;-56
2023/07/27 09:24:44;;;;;;;1.80;1.80;;;;;;;;;;5012069;28;20446;-56
2023/07/27 09:27:11;;;;;;;2.20;2.10;;;;;;;;;;5012569;28;20497;-56
2023/07/27 09:29:40;;;;;;;2.63;2.40;;;;;;;;;;5011760;28;20854;-55
2023/07/27 09:32:08;;;;;;;4.07;1.90;;;;;;;;;;5015345;28;20510;-55
2023/07/27 09:34:34;;;;;;;4.40;2.17;;;;;;;;;;5015786;28;20433;-55
2023/07/27 09:37:04;;;;;;;3.50;1.77;;;;;;;;;;5015903;28;20914;-56
2023/07/27 09:39:34;;;;;;;1.83;1.73;;;;;;;;;;5015473;28;20954;-55
2023/07/27 09:42:00;;;;;;;2.23;2.17;;;;;;;;;;5015752;28;20418;-55
2023/07/27 09:44:26;;;;;;;4.20;2.60;;;;;;;;;;5015510;28;20418;-55
2023/07/27 09:46:55;;;;;;;2.53;2.43;;;;;;;;;;5015610;28;20488;-55
2023/07/27 09:49:21;;;;;;;5.17;1.70;;;;;;;;;;5015545;28;20442;-55
2023/07/27 09:51:48;;;;;;;2.47;2.20;;;;;;;;;;5015466;28;20466;-56
2023/07/27 09:54:14;;;;;;;2.50;2.03;;;;;;;;;;5015460;28;20461;-56
2023/07/27 09:56:41;;;;;;;2.00;1.90;;;;;;;;;;5015488;28;20776;-56
2023/07/27 09:59:07;;;;;;;5.50;1.97;;;;;;;;;;5015341;28;20438;-58
2023/07/27 10:01:34;;;;;;;2.07;1.97;;;;;;;;;;5015213;28;20936;-56
2023/07/27 10:04:02;;;;;;;1.70;1.70;;;;;;;;;;5015264;28;20526;-58
2023/07/27 10:06:29;;;;;;;3.93;2.17;;;;;;;;;;5015316;28;20426;-55
2023/07/27 10:08:55;;;;;;;2.33;2.13;;;;;;;;;;5015377;28;20441;-55
2023/07/27 10:11:29;;;;;;;1.67;1.57;;;;;;;;;;5014796;28;20423;-56
2023/07/27 10:13:57;;;;;;;1.87;1.87;;;;;;;;;;5015524;28;20439;-56
2023/07/27 10:16:29;;;;;;;1.77;1.77;;;;;;;;;;5014957;28;20459;-56
2023/07/27 10:18:55;;;;;;;2.40;2.20;;;;;;;;;;5015045;28;20846;-56
2023/07/27 10:21:21;;;;;;;2.10;2.00;;;;;;;;;;5014834;28;20426;-56
2023/07/27 10:23:57;;;;;;;1.80;1.80;;;;;;;;;;5014724;28;20412;-56
2023/07/27 10:26:42;;;;;;;2.17;2.00;;;;;;;;;;5014474;28;20424;-56
2023/07/27 10:29:15;;;;;;;1.93;1.80;;;;;;;;;;5014847;28;20868;-56
2023/07/27 10:31:42;;;;;;;1.90;1.90;;;;;;;;;;5013058;28;20483;-56
2023/07/27 10:34:08;;;;;;;2.27;2.07;;;;;;;;;;5014362;28;20956;-56
2023/07/27 10:36:57;;;;;;;3.33;2.30;;;;;;;;;;5014238;28;20430;-56
2023/07/27 10:39:34;;;;;;;1.60;1.60;;;;;;;;;;5014413;28;20412;-56
2023/07/27 10:42:04;;;;;;;2.20;2.00;;;;;;;;;;5013925;28;20424;-57
2023/07/27 10:44:41;;;;;;;2.80;2.20;;;;;;;;;;5014951;28;20443;-56
2023/07/27 10:47:08;;;;;;;3.17;2.27;;;;;;;;;;5014476;28;20423;-56
2023/07/27 10:49:38;;;;;;;2.33;2.07;;;;;;;;;;5014990;28;20437;-56
2023/07/27 10:52:04;;;;;;;3.33;2.23;;;;;;;;;;5014273;28;21093;-56
2023/07/27 10:54:30;;;;;;;2.17;2.07;;;;;;;;;;5013855;28;20479;-56
2023/07/27 10:56:56;;;;;;;1.90;1.80;;;;;;;;;;5013936;28;20414;-59
2023/07/27 10:59:22;;;;;;;4.40;1.60;;;;;;;;;;5014128;28;20447;-56
2023/07/27 11:01:49;;;;;;;2.37;2.10;;;;;;;;;;5013897;28;20420;-56
2023/07/27 11:04:15;;;;;;;2.30;1.67;;;;;;;;;;5014139;28;20467;-57
2023/07/27 11:06:43;;;;;;;2.37;2.00;;;;;;;;;;5014116;28;20426;-56
2023/07/27 11:09:12;;;;;;;4.83;1.70;;;;;;;;;;5014122;28;20427;-57
2023/07/27 11:11:39;;;;;;;2.60;2.00;;;;;;;;;;5014329;28;20471;-57
2023/07/27 11:14:08;;;;;;;2.07;1.60;;;;;;;;;;5014212;28;20416;-57
2023/07/27 11:16:38;;;;;;;2.10;2.03;;;;;;;;;;5013825;28;20409;-56
2023/07/27 11:19:05;;;;;;;2.80;2.60;;;;;;;;;;5013897;28;20956;-56
2023/07/27 11:21:32;;;;;;;3.37;2.00;;;;;;;;;;5014045;28;20495;-57
2023/07/27 11:23:58;;;;;;;2.13;2.03;;;;;;;;;;5013733;28;20443;-56
2023/07/27 11:26:27;;;;;;;1.70;1.60;;;;;;;;;;5012192;28;20941;-57
2023/07/27 11:28:55;;;;;;;2.13;2.00;;;;;;;;;;5013515;28;20413;-57
2023/07/27 11:31:21;;;;;;;3.23;1.83;;;;;;;;;;5013467;28;20789;-57
2023/07/27 11:33:47;;;;;;;2.03;1.70;;;;;;;;;;5013436;28;20416;-57
2023/07/27 11:36:13;;;;;;;1.83;1.83;;;;;;;;;;5013804;28;20959;-57
2023/07/27 11:38:39;;;;;;;1.70;1.60;;;;;;;;;;5013949;28;20439;-57
2023/07/27 11:41:06;;;;;;;2.10;2.00;;;;;;;;;;5013544;28;20417;-57
2023/07/27 11:43:32;;;;;;;2.73;2.10;;;;;;;;;;5013149;28;20478;-57
2023/07/27 11:45:58;;;;;;;2.07;1.97;;;;;;;;;;5013322;28;20425;-56
2023/07/27 11:48:32;;;;;;;2.07;1.80;;;;;;;;;;5013130;28;20424;-56
2023/07/27 11:50:58;;;;;;;2.07;2.03;;;;;;;;;;5013241;28;20993;-57
2023/07/27 11:53:25;;;;;;;2.60;2.00;;;;;;;;;;5013171;28;20508;-57
2023/07/27 11:55:51;;;;;;;2.00;1.90;;;;;;;;;;5012328;28;20420;-57
2023/07/27 11:58:17;;;;;;;1.90;1.80;;;;;;;;;;5012980;28;20420;-56
2023/07/27 12:00:50;;;;;;;1.83;1.80;;;;;;;;;;5013037;28;20446;-57
2023/07/27 12:03:18;;;;;;;1.50;1.50;;;;;;;;;;5012893;28;20902;-57
2023/07/27 12:05:44;;;;;;;1.80;1.70;;;;;;;;;;5013001;28;20445;-57
2023/07/27 12:08:10;;;;;;;2.50;2.03;;;;;;;;;;5012849;28;20444;-57
2023/07/27 12:10:36;;;;;;;1.93;1.83;;;;;;;;;;5013110;28;20447;-57
2023/07/27 12:13:03;;;;;;;2.10;1.73;;;;;;;;;;5012602;28;20467;-56
2023/07/27 12:15:33;;;;;;;2.00;1.90;;;;;;;;;;5012680;28;20796;-62
2023/07/27 12:18:03;;;;;;;2.10;1.80;;;;;;;;;;5011687;28;20481;-57
2023/07/27 12:20:33;;;;;;;6.33;1.70;;;;;;;;;;5012931;28;20436;-57
2023/07/27 12:22:59;;;;;;;2.30;2.20;;;;;;;;;;5012867;28;20423;-57
2023/07/27 12:25:26;;;;;;;2.00;1.70;;;;;;;;;;5013199;28;20815;-56
2023/07/27 12:27:54;;;;;;;1.63;1.53;;;;;;;;;;5012917;28;20426;-57
2023/07/27 12:30:20;;;;;;;1.63;1.63;;;;;;;;;;5012798;28;20449;-57
2023/07/27 12:32:47;;;;;;;1.93;1.83;;;;;;;;;;5012805;28;20454;-56
2023/07/27 12:35:13;;;;;;;1.97;1.53;;;;;;;;;;5012770;28;20437;-57
2023/07/27 12:37:39;;;;;;;1.70;1.60;;;;;;;;;;5012928;28;20790;-56
2023/07/27 12:40:06;;;;;;;1.50;1.50;;;;;;;;;;5012694;28;20908;-56
2023/07/27 12:42:32;;;;;;;1.97;1.73;;;;;;;;;;5012338;28;20431;-57
2023/07/27 12:44:58;;;;;;;2.03;1.57;;;;;;;;;;5012666;28;20439;-57
2023/07/27 12:47:24;;;;;;;1.40;1.40;;;;;;;;;;5012351;28;20424;-57
2023/07/27 12:49:50;;;;;;;2.93;1.77;;;;;;;;;;5012332;28;20424;-57
2023/07/27 12:52:16;;;;;;;1.60;1.50;;;;;;;;;;5012402;28;20468;-57
2023/07/27 12:54:42;;;;;;;1.40;1.40;;;;;;;;;;5012375;28;20412;-57
2023/07/27 12:57:10;;;;;;;30.07;2.57;;;;;;;;;;5012401;28;20420;-57
2023/07/27 12:59:36;;;;;;;1.90;1.80;;;;;;;;;;5012331;28;20413;-57
2023/07/27 13:02:02;;;;;;;3.23;1.40;;;;;;;;;;5012667;28;20404;-56
2023/07/27 13:04:28;;;;;;;1.10;1.00;;;;;;;;;;5012032;28;20425;-57
2023/07/27 13:06:54;;;;;;;1.57;1.50;;;;;;;;;;5015111;28;20490;-57
2023/07/27 13:09:20;;;;;;;3.43;1.63;;;;;;;;;;5016004;28;20430;-57
2023/07/27 13:11:46;;;;;;;1.30;1.30;;;;;;;;;;5016402;28;20464;-57
2023/07/27 13:14:12;;;;;;;2.20;1.33;;;;;;;;;;5016325;28;20443;-57
2023/07/27 13:16:41;;;;;;;1.47;1.37;;;;;;;;;;5014990;28;20466;-57
2023/07/27 13:19:07;;;;;;;2.00;1.10;;;;;;;;;;5016121;28;20421;-57
2023/07/27 13:21:32;;;;;;;1.50;1.40;;;;;;;;;;5016211;28;20906;-58
2023/07/27 13:23:58;;;;;;;1.37;1.37;;;;;;;;;;5016207;28;20426;-57
2023/07/27 13:26:24;;;;;;;2.50;1.40;;;;;;;;;;5016220;28;20455;-55
2023/07/27 13:28:50;;;;;;;1.83;1.67;;;;;;;;;;5015874;28;20412;-56
2023/07/27 13:31:22;;;;;;;1.10;1.10;;;;;;;;;;5014561;28;20470;-56
2023/07/27 13:33:48;;;;;;;1.10;1.10;;;;;;;;;;5015643;28;20422;-56
2023/07/27 13:36:14;;;;;;;1.37;1.37;;;;;;;;;;5015639;28;20429;-57
2023/07/27 13:38:40;;;;;;;2.33;1.50;;;;;;;;;;5015707;28;20466;-57
2023/07/27 13:41:06;;;;;;;1.80;1.70;;;;;;;;;;5015563;28;20519;-56
2023/07/27 13:43:32;;;;;;;1.20;1.20;;;;;;;;;;5014361;28;20437;-56
2023/07/27 13:45:58;;;;;;;1.30;1.30;;;;;;;;;;5015312;28;20825;-57
2023/07/27 13:48:25;;;;;;;1.37;1.37;;;;;;;;;;5013909;28;20415;-57
2023/07/27 13:50:51;;;;;;;1.47;1.23;;;;;;;;;;5015848;28;20436;-57
2023/07/27 13:53:19;;;;;;;0.97;0.97;;;;;;;;;;5015344;28;20562;-56
2023/07/27 13:55:48;;;;;;;1.30;1.30;;;;;;;;;;5014461;28;20440;-57
2023/07/27 13:58:14;;;;;;;3.17;1.20;;;;;;;;;;5015559;28;20446;-56
2023/07/27 14:00:40;;;;;;;1.20;1.10;;;;;;;;;;5015587;28;20411;-57
2023/07/27 14:03:06;;;;;;;1.23;1.13;;;;;;;;;;5015322;28;20919;-57
2023/07/27 14:05:32;;;;;;;1.20;1.20;;;;;;;;;;5014278;28;20502;-57
2023/07/27 14:07:58;;;;;;;0.90;0.90;;;;;;;;;;5015520;28;20430;-57
2023/07/27 14:10:24;;;;;;;0.93;0.93;;;;;;;;;;5015446;28;20534;-57
2023/07/27 14:12:50;;;;;;;1.10;1.00;;;;;;;;;;5015503;28;20463;-57
2023/07/27 14:15:16;;;;;;;1.20;1.17;;;;;;;;;;5015314;28;20932;-57
2023/07/27 14:17:42;;;;;;;1.13;1.13;;;;;;;;;;5014124;28;20520;-57
2023/07/27 14:20:08;;;;;;;4.30;1.10;;;;;;;;;;5015166;28;20425;-57
2023/07/27 14:22:37;;;;;;;1.23;1.23;;;;;;;;;;5015016;28;20406;-57
2023/07/27 14:25:03;;;;;;;2.43;1.30;;;;;;;;;;5014783;28;20415;-58
2023/07/27 14:27:30;;;;;;;1.10;1.10;;;;;;;;;;5014963;28;20424;-57
2023/07/27 14:29:56;;;;;;;4.73;1.07;;;;;;;;;;5015161;28;20813;-57
2023/07/27 14:32:24;;;;;;;2.00;1.10;;;;;;;;;;5014900;28;20469;-57
2023/07/27 14:34:50;;;;;;;1.37;1.37;;;;;;;;;;5014853;28;20421;-57
2023/07/27 14:37:16;;;;;;;5.20;1.53;;;;;;;;;;5014760;28;20438;-57
2023/07/27 14:39:42;;;;;;;1.20;1.20;;;;;;;;;;5014747;28;20424;-57
2023/07/27 14:42:08;;;;;;;1.30;1.30;;;;;;;;;;5014911;28;20425;-57